Time;durP1;ratioP1;P1;durP2;ratioP2;P2;SDS_P1;SDS_P2;PMS_P1;PMS_P2;Temp;Humidity;BMP_temperature;BMP_pressure;BME280_temperature;BME280_humidity;BME280_pressure;Samples;Min_cycle;Max_cycle;Signal;HPM_P1;HPM_P2
2021/05/19 00:01:01;;;;;;;7.35;6.38;;;;;;;13.64;84.96;97864.05;129993;1101;23388;-62
2021/05/19 00:03:29;;;;;;;8.68;6.08;;;;;;;13.65;85.00;97860.99;129911;1101;22638;-62
2021/05/19 00:05:56;;;;;;;9.83;6.40;;;;;;;13.67;84.92;97866.95;129908;1101;23336;-63
2021/05/19 00:08:26;;;;;;;9.75;6.88;;;;;;;13.68;84.77;97865.03;129923;1101;22555;-63
2021/05/19 00:10:55;;;;;;;9.43;7.13;;;;;;;13.68;84.97;97868.57;129923;1101;22567;-63
2021/05/19 00:13:26;;;;;;;7.03;6.20;;;;;;;13.67;85.18;97861.48;129892;1101;22597;-63
2021/05/19 00:15:54;;;;;;;8.40;6.20;;;;;;;13.69;85.00;97861.17;129980;1101;22544;-63
2021/05/19 00:18:22;;;;;;;12.00;6.33;;;;;;;13.71;85.26;97864.37;129909;1101;22659;-63
2021/05/19 00:20:49;;;;;;;8.93;5.50;;;;;;;13.69;85.04;97866.64;129979;1101;22695;-63
2021/05/19 00:23:18;;;;;;;8.65;5.95;;;;;;;13.71;85.25;97864.37;129937;1101;22570;-62
2021/05/19 00:25:46;;;;;;;6.15;5.55;;;;;;;13.71;84.78;97859.70;129965;1101;23475;-63
2021/05/19 00:28:14;;;;;;;9.48;5.45;;;;;;;13.73;85.17;97864.86;129927;1101;23368;-63
2021/05/19 00:30:41;;;;;;;6.70;5.40;;;;;;;13.72;84.92;97861.31;129735;1102;22668;-63
2021/05/19 00:33:09;;;;;;;5.58;5.08;;;;;;;13.73;84.95;97862.13;129997;1101;22687;-63
2021/05/19 00:35:37;;;;;;;6.60;5.28;;;;;;;13.74;84.84;97864.55;129948;1101;22671;-63
2021/05/19 00:38:05;;;;;;;9.10;5.70;;;;;;;13.76;85.28;97865.03;129956;1101;22549;-63
2021/05/19 00:40:33;;;;;;;6.93;5.60;;;;;;;13.76;84.92;97856.83;127292;1101;22764;-72
2021/05/19 00:43:00;;;;;;;5.33;4.83;;;;;;;13.79;85.19;97858.13;125512;1101;22752;-72
2021/05/19 00:45:28;;;;;;;9.88;5.68;;;;;;;13.79;84.81;97844.44;129926;1101;23031;-72
2021/05/19 00:47:56;;;;;;;6.63;5.80;;;;;;;13.80;84.88;97843.31;129970;1101;24443;-72
2021/05/19 00:50:25;;;;;;;7.65;5.48;;;;;;;13.83;85.03;97841.88;129836;1101;22602;-72
2021/05/19 00:52:53;;;;;;;7.88;5.70;;;;;;;13.83;84.82;97847.34;129716;1101;22614;-72
2021/05/19 00:55:20;;;;;;;7.18;5.98;;;;;;;13.84;84.85;97847.03;129660;1102;22588;-72
2021/05/19 00:57:52;;;;;;;6.68;6.05;;;;;;;13.85;84.90;97845.09;129898;1101;23483;-71
2021/05/19 01:00:21;;;;;;;7.98;5.45;;;;;;;13.83;84.89;97830.92;129605;1101;23641;-73
2021/05/19 01:02:54;;;;;;;7.23;6.40;;;;;;;13.87;84.85;97848.30;129961;1101;22581;-72
2021/05/19 01:06:30;;;;;;;7.98;5.73;;;;;;;13.88;84.51;97855.38;129948;1101;22988;-72
2021/05/19 01:11:12;;;;;;;6.43;5.83;;;;;;;13.85;84.49;97856.05;129937;1101;22705;-72
2021/05/19 01:13:43;;;;;;;6.68;6.08;;;;;;;13.83;84.51;97853.63;129903;1101;22705;-71
2021/05/19 01:16:10;;;;;;;8.60;6.35;;;;;;;13.82;84.59;97857.48;129963;1101;22573;-71
2021/05/19 01:18:40;;;;;;;6.95;6.25;;;;;;;13.82;84.36;97856.69;129838;1101;22803;-72
2021/05/19 01:21:08;;;;;;;8.35;6.75;;;;;;;13.82;84.54;97862.16;129873;1101;22656;-73
2021/05/19 01:23:37;;;;;;;7.70;6.90;;;;;;;13.80;84.32;97852.33;129869;1101;22551;-72
2021/05/19 01:26:07;;;;;;;9.93;7.03;;;;;;;13.80;84.30;97863.28;129930;1101;23483;-72
2021/05/19 01:28:35;;;;;;;9.85;7.40;;;;;;;13.78;84.10;97860.05;129843;1101;22645;-73
2021/05/19 01:31:08;;;;;;;7.88;7.13;;;;;;;13.78;84.17;97859.24;129878;1101;23521;-73
2021/05/19 01:33:37;;;;;;;8.78;7.28;;;;;;;13.76;84.36;97864.23;129663;1102;22555;-72
2021/05/19 01:36:05;;;;;;;9.65;7.48;;;;;;;13.74;84.33;97864.55;129644;1101;22633;-73
2021/05/19 01:38:33;;;;;;;13.20;7.43;;;;;;;13.73;84.39;97870.33;129991;1101;22666;-72
2021/05/19 01:41:02;;;;;;;11.75;8.78;;;;;;;13.69;83.99;97861.98;129641;1101;23307;-73
2021/05/19 01:43:34;;;;;;;9.83;7.78;;;;;;;13.66;84.59;97867.27;129661;1103;22605;-71
2021/05/19 01:46:10;;;;;;;9.05;7.70;;;;;;;13.61;84.24;97864.67;129938;1101;22542;-73
2021/05/19 01:48:38;;;;;;;9.75;8.23;;;;;;;13.57;84.32;97856.28;129946;1101;23436;-73
2021/05/19 01:51:07;;;;;;;10.48;8.60;;;;;;;13.55;84.75;97849.55;129804;1101;23674;-74
2021/05/19 01:53:34;;;;;;;10.55;8.70;;;;;;;13.54;84.66;97858.88;129962;1101;23541;-74
2021/05/19 01:56:02;;;;;;;9.68;8.13;;;;;;;13.54;85.01;97865.16;129870;1101;22665;-74
2021/05/19 01:58:36;;;;;;;10.83;8.70;;;;;;;13.52;85.00;97869.33;129938;1101;22565;-74
2021/05/19 02:01:06;;;;;;;12.50;8.73;;;;;;;13.53;85.13;97865.47;129678;1101;22707;-72
2021/05/19 02:03:35;;;;;;;9.45;8.45;;;;;;;13.53;85.10;97862.73;129864;1101;22590;-72
2021/05/19 02:06:13;;;;;;;9.90;8.78;;;;;;;13.52;84.89;97867.40;129881;1101;22560;-73
2021/05/19 02:08:44;;;;;;;10.70;8.98;;;;;;;13.50;84.97;97864.17;129944;1101;22649;-72
2021/05/19 02:11:15;;;;;;;14.43;9.48;;;;;;;13.47;85.35;97864.80;129938;1101;22570;-73
2021/05/19 02:13:43;;;;;;;11.73;10.35;;;;;;;13.43;85.41;97863.81;129920;1101;22747;-72
2021/05/19 02:16:14;;;;;;;15.80;8.83;;;;;;;13.40;85.51;97868.02;129994;1101;22570;-72
2021/05/19 02:18:45;;;;;;;14.83;9.65;;;;;;;13.37;85.77;97868.64;129882;1101;23495;-71
2021/05/19 02:21:13;;;;;;;13.88;10.68;;;;;;;13.36;85.68;97882.63;129651;1101;22592;-72
2021/05/19 02:23:47;;;;;;;13.25;10.13;;;;;;;13.34;86.14;97882.94;129572;1104;22737;-71
2021/05/19 02:26:15;;;;;;;15.58;10.65;;;;;;;13.33;86.19;97892.27;129627;1104;23801;-72
2021/05/19 02:28:42;;;;;;;12.13;10.70;;;;;;;13.32;86.13;97885.18;129560;1104;22789;-73
2021/05/19 02:31:10;;;;;;;14.55;11.63;;;;;;;13.34;86.05;97877.47;129628;1105;23527;-72
2021/05/19 02:33:38;;;;;;;18.10;11.48;;;;;;;13.37;86.74;97895.19;129561;1104;22552;-72
2021/05/19 02:36:07;;;;;;;12.43;10.53;;;;;;;13.36;86.66;97886.17;129615;1105;22705;-72
2021/05/19 02:38:35;;;;;;;12.40;11.05;;;;;;;13.38;86.66;97894.88;129621;1104;22661;-72
2021/05/19 02:41:03;;;;;;;10.88;9.53;;;;;;;13.41;86.99;97886.04;126097;1104;22813;-62
2021/05/19 02:43:36;;;;;;;12.03;10.83;;;;;;;13.44;86.49;97884.58;129563;1104;22592;-63
2021/05/19 02:46:03;;;;;;;12.28;10.63;;;;;;;13.47;87.05;97877.67;129642;1105;22655;-63
2021/05/19 02:48:31;;;;;;;17.63;11.40;;;;;;;13.50;86.78;97887.98;129574;1104;22645;-64
2021/05/19 02:50:59;;;;;;;16.45;12.28;;;;;;;13.52;86.88;97883.01;129596;1104;22567;-63
2021/05/19 02:53:45;;;;;;;14.58;11.73;;;;;;;13.55;87.10;97882.38;129603;1104;22620;-64
2021/05/19 02:56:12;;;;;;;17.55;11.65;;;;;;;13.55;86.81;97885.92;129935;1101;23347;-63
2021/05/19 02:58:40;;;;;;;13.83;12.43;;;;;;;13.58;86.90;97895.41;129975;1101;22621;-63
2021/05/19 03:01:09;;;;;;;14.13;12.03;;;;;;;13.59;86.96;97888.81;129897;1101;22695;-64
2021/05/19 03:03:36;;;;;;;16.60;12.15;;;;;;;13.59;86.99;97884.14;129994;1101;22609;-63
2021/05/19 03:06:04;;;;;;;15.88;12.65;;;;;;;13.61;86.87;97884.64;129915;1101;22593;-63
2021/05/19 03:08:35;;;;;;;17.23;12.48;;;;;;;13.61;87.10;97881.09;129981;1101;22643;-63
2021/05/19 03:11:03;;;;;;;14.03;12.15;;;;;;;13.62;86.76;97894.46;129937;1101;23548;-63
2021/05/19 03:13:32;;;;;;;14.83;12.98;;;;;;;13.62;87.24;97891.73;129970;1101;23513;-63
2021/05/19 03:15:59;;;;;;;16.05;13.28;;;;;;;13.62;87.11;97899.13;129916;1101;22745;-63
2021/05/19 03:18:27;;;;;;;16.53;13.88;;;;;;;13.61;86.97;97906.53;129964;1101;22575;-63
2021/05/19 03:20:55;;;;;;;14.60;13.08;;;;;;;13.61;86.94;97902.98;129974;1101;22634;-63
2021/05/19 03:23:22;;;;;;;15.28;12.98;;;;;;;13.61;87.20;97894.78;129966;1101;22798;-63
2021/05/19 03:25:50;;;;;;;14.15;12.45;;;;;;;13.61;87.00;97900.25;129950;1101;22588;-63
2021/05/19 03:28:18;;;;;;;14.40;12.90;;;;;;;13.62;87.23;97902.67;129999;1101;22573;-63
2021/05/19 03:30:45;;;;;;;15.53;13.15;;;;;;;13.61;87.35;97912.00;129930;1101;22758;-63
2021/05/19 03:33:13;;;;;;;15.63;13.28;;;;;;;13.63;87.07;97907.02;129914;1101;22663;-63
2021/05/19 03:35:42;;;;;;;14.78;13.08;;;;;;;13.65;87.31;97906.71;129970;1101;23144;-63
2021/05/19 03:38:09;;;;;;;14.85;12.95;;;;;;;13.67;87.16;97908.01;130001;1101;23336;-63
2021/05/19 03:40:37;;;;;;;15.08;13.50;;;;;;;13.68;87.06;97903.34;129961;1101;22687;-63
2021/05/19 03:43:05;;;;;;;17.17;12.80;;;;;;;13.69;87.40;97908.50;129950;1101;22544;-63
2021/05/19 03:45:33;;;;;;;16.30;12.95;;;;;;;13.71;87.36;97913.63;129963;1101;22522;-64
2021/05/19 03:48:01;;;;;;;29.30;18.10;;;;;;;13.70;87.60;97912.86;129946;1101;22630;-63
2021/05/19 03:50:29;;;;;;;27.00;18.73;;;;;;;13.70;87.45;97912.86;129982;1101;22586;-63
2021/05/19 03:52:57;;;;;;;22.90;16.05;;;;;;;13.68;87.53;97915.10;129918;1101;22612;-63
2021/05/19 03:55:25;;;;;;;17.50;14.98;;;;;;;13.72;87.61;97909.77;129980;1101;22686;-62
2021/05/19 03:57:52;;;;;;;17.58;15.73;;;;;;;13.75;87.39;97915.42;129951;1101;22590;-62
2021/05/19 04:00:26;;;;;;;16.77;14.93;;;;;;;13.77;87.28;97915.11;129947;1101;22646;-62
2021/05/19 04:02:53;;;;;;;19.60;14.83;;;;;;;13.78;87.06;97925.75;129908;1101;22755;-62
2021/05/19 04:05:21;;;;;;;22.35;14.98;;;;;;;13.80;87.04;97918.03;129952;1101;22555;-62
2021/05/19 04:07:50;;;;;;;18.18;16.25;;;;;;;13.83;87.05;97913.05;129933;1101;22680;-62
2021/05/19 04:10:18;;;;;;;18.73;15.85;;;;;;;13.83;87.22;97913.05;129988;1101;22620;-62
2021/05/19 04:12:48;;;;;;;21.80;16.65;;;;;;;13.84;87.05;97918.20;129914;1101;22559;-62
2021/05/19 04:15:31;;;;;;;19.95;17.18;;;;;;;13.84;87.11;97914.66;129978;1101;22576;-62
2021/05/19 04:17:59;;;;;;;22.83;17.63;;;;;;;13.84;87.06;97915.47;129938;1101;22670;-62
2021/05/19 04:20:27;;;;;;;22.78;17.20;;;;;;;13.85;87.17;97916.28;129992;1101;22574;-62
2021/05/19 04:22:54;;;;;;;21.83;17.45;;;;;;;13.86;86.78;97913.20;129935;1101;22700;-62
2021/05/19 04:25:22;;;;;;;23.13;17.58;;;;;;;13.88;86.76;97913.69;129993;1101;22558;-62
2021/05/19 04:27:50;;;;;;;22.03;17.73;;;;;;;13.91;86.88;97914.98;129922;1101;22555;-62
2021/05/19 04:30:17;;;;;;;21.70;16.60;;;;;;;13.94;87.12;97917.09;129979;1101;23118;-62
2021/05/19 04:32:45;;;;;;;19.25;17.20;;;;;;;13.97;86.87;97910.98;129950;1101;22719;-63
2021/05/19 04:35:13;;;;;;;25.80;17.65;;;;;;;14.01;87.33;97917.41;129996;1101;22690;-63
2021/05/19 04:37:41;;;;;;;23.78;17.60;;;;;;;14.02;87.22;97916.29;129968;1101;22585;-63
2021/05/19 04:40:10;;;;;;;21.03;17.83;;;;;;;14.09;87.11;97916.64;128045;1101;22740;-74
2021/05/19 04:42:37;;;;;;;19.93;17.48;;;;;;;14.13;86.80;97918.42;129996;1101;22533;-74
2021/05/19 04:45:06;;;;;;;19.20;16.93;;;;;;;14.18;87.12;97919.38;129953;1101;22666;-74
2021/05/19 04:47:33;;;;;;;20.43;17.23;;;;;;;14.23;87.28;97908.27;129968;1101;22580;-74
2021/05/19 04:50:01;;;;;;;19.78;17.78;;;;;;;14.31;87.11;97904.72;129945;1101;22679;-74
2021/05/19 04:52:29;;;;;;;18.25;15.70;;;;;;;14.40;87.12;97905.58;129975;1101;22713;-75
2021/05/19 04:54:59;;;;;;;17.03;15.13;;;;;;;14.53;87.23;97912.83;129987;1101;22543;-75
2021/05/19 04:57:28;;;;;;;16.50;13.38;;;;;;;14.73;87.54;97901.19;129949;1101;22654;-75
2021/05/19 04:59:55;;;;;;;14.90;13.05;;;;;;;14.97;87.60;97905.36;129930;1101;22636;-74
2021/05/19 05:02:23;;;;;;;13.38;11.98;;;;;;;15.27;87.61;97906.25;130015;1101;22542;-74
2021/05/19 05:04:52;;;;;;;13.13;11.08;;;;;;;15.56;86.91;97906.33;129926;1101;22560;-75
2021/05/19 05:07:21;;;;;;;13.93;12.43;;;;;;;15.79;86.13;97904.91;129944;1101;22538;-74
2021/05/19 05:09:49;;;;;;;14.78;12.53;;;;;;;15.99;85.19;97908.04;129941;1101;22585;-74
2021/05/19 05:12:17;;;;;;;12.55;11.28;;;;;;;16.12;84.28;97906.98;129952;1101;22674;-74
2021/05/19 05:14:46;;;;;;;13.58;12.15;;;;;;;16.22;83.43;97912.08;127211;1096;28375;-75
2021/05/19 05:17:16;;;;;;;12.63;11.33;;;;;;;16.28;82.51;97902.50;129961;1101;23286;-75
2021/05/19 05:19:45;;;;;;;15.23;13.23;;;;;;;16.31;81.96;97895.52;129943;1101;22627;-74
2021/05/19 05:22:14;;;;;;;14.43;12.88;;;;;;;16.35;81.39;97905.51;130013;1101;22717;-74
2021/05/19 05:24:45;;;;;;;14.33;12.88;;;;;;;16.41;81.32;97898.69;129657;1102;22738;-75
2021/05/19 05:27:13;;;;;;;15.98;14.10;;;;;;;16.48;80.72;97904.44;129969;1101;22577;-74
2021/05/19 05:29:45;;;;;;;15.83;14.15;;;;;;;16.57;80.34;97904.38;129946;1101;22573;-75
2021/05/19 05:32:13;;;;;;;22.13;14.73;;;;;;;16.60;79.80;97906.44;129960;1101;22522;-75
2021/05/19 05:34:41;;;;;;;14.18;12.78;;;;;;;16.61;79.32;97910.79;129950;1101;22648;-75
2021/05/19 05:37:09;;;;;;;19.55;13.70;;;;;;;16.60;78.72;97909.19;129896;1101;22588;-75
2021/05/19 05:39:36;;;;;;;17.18;14.20;;;;;;;16.58;78.71;97908.73;129068;1101;22840;-74
2021/05/19 05:42:05;;;;;;;16.48;14.45;;;;;;;16.56;78.49;97911.83;129881;1101;23498;-75
2021/05/19 05:44:33;;;;;;;22.50;16.53;;;;;;;16.54;78.47;97916.85;129990;1101;22558;-75
2021/05/19 05:47:00;;;;;;;20.25;17.00;;;;;;;16.52;78.50;97910.88;129976;1101;22523;-75
2021/05/19 05:49:28;;;;;;;19.98;16.48;;;;;;;16.51;78.44;97912.02;129976;1101;23615;-75
2021/05/19 05:51:56;;;;;;;17.70;15.20;;;;;;;16.48;78.40;97914.63;129952;1101;23092;-75
2021/05/19 05:54:23;;;;;;;21.48;17.70;;;;;;;16.45;78.42;97924.34;130041;1101;22614;-75
2021/05/19 05:56:51;;;;;;;23.00;18.03;;;;;;;16.43;78.27;97926.65;129928;1101;22546;-75
2021/05/19 05:59:18;;;;;;;21.65;17.33;;;;;;;16.42;78.00;97924.23;129669;1101;23544;-74
2021/05/19 06:01:46;;;;;;;25.75;19.53;;;;;;;16.40;77.82;97921.81;129894;1101;22566;-75
2021/05/19 06:04:13;;;;;;;25.53;21.00;;;;;;;16.38;77.64;97924.09;129933;1101;22831;-75
2021/05/19 06:06:41;;;;;;;24.53;20.68;;;;;;;16.37;77.58;97930.72;129956;1101;22591;-75
2021/05/19 06:09:10;;;;;;;28.45;21.58;;;;;;;16.36;77.29;97928.30;130022;1101;22606;-75
2021/05/19 06:11:37;;;;;;;26.33;20.08;;;;;;;16.35;77.23;97926.69;129981;1101;23523;-76
2021/05/19 06:14:05;;;;;;;24.18;19.70;;;;;;;16.35;77.02;97924.75;129967;1101;22658;-74
2021/05/19 06:16:33;;;;;;;24.43;19.50;;;;;;;16.35;76.86;97937.69;129950;1101;22781;-75
2021/05/19 06:19:01;;;;;;;25.80;19.68;;;;;;;16.36;76.88;97936.55;129974;1101;22595;-76
2021/05/19 06:21:29;;;;;;;19.18;17.08;;;;;;;16.36;76.86;97940.11;130010;1101;23870;-76
2021/05/19 06:23:57;;;;;;;20.18;17.35;;;;;;;16.37;76.72;97935.41;129942;1101;23119;-76
2021/05/19 06:26:25;;;;;;;18.50;15.03;;;;;;;16.37;76.57;97935.41;129967;1101;22731;-76
2021/05/19 06:28:53;;;;;;;19.45;16.05;;;;;;;16.37;76.22;97936.22;129938;1101;22697;-77
2021/05/19 06:31:21;;;;;;;18.80;16.80;;;;;;;16.38;76.28;97937.02;129986;1101;22615;-76
2021/05/19 06:33:48;;;;;;;21.10;18.80;;;;;;;16.40;76.87;97938.30;129944;1101;23286;-75
2021/05/19 06:36:22;;;;;;;19.90;17.60;;;;;;;16.46;76.61;97947.14;129954;1101;22755;-74
2021/05/19 06:38:49;;;;;;;19.25;17.03;;;;;;;16.51;75.94;97949.70;129908;1101;22729;-76
2021/05/19 06:41:17;;;;;;;21.13;16.60;;;;;;;16.56;75.90;97955.01;129968;1101;22504;-76
2021/05/19 06:43:45;;;;;;;20.05;15.33;;;;;;;16.63;75.90;97955.30;129941;1101;24007;-76
2021/05/19 06:46:25;;;;;;;20.13;16.15;;;;;;;16.69;75.41;97955.91;129963;1101;22594;-74
2021/05/19 06:48:53;;;;;;;19.25;15.13;;;;;;;16.75;75.18;97954.55;129991;1102;22567;-74
2021/05/19 06:51:21;;;;;;;17.98;14.55;;;;;;;16.80;74.55;97954.34;129957;1101;22564;-76
2021/05/19 06:53:49;;;;;;;19.05;16.90;;;;;;;16.83;74.28;97959.19;129956;1101;23287;-76
2021/05/19 06:56:18;;;;;;;20.00;17.78;;;;;;;16.87;74.57;97960.94;130008;1101;23336;-75
2021/05/19 06:58:46;;;;;;;23.40;18.40;;;;;;;16.91;74.27;97969.30;129931;1101;22588;-76
2021/05/19 07:01:14;;;;;;;22.40;17.58;;;;;;;16.94;74.17;97972.19;130016;1101;22585;-76
2021/05/19 07:03:41;;;;;;;18.73;16.73;;;;;;;16.95;73.62;97975.73;129994;1101;24170;-76
2021/05/19 07:06:09;;;;;;;20.90;16.75;;;;;;;16.95;73.53;97975.73;130026;1101;22589;-76
2021/05/19 07:08:37;;;;;;;20.48;16.65;;;;;;;16.92;73.11;97979.16;129979;1101;22545;-76
2021/05/19 07:11:05;;;;;;;21.55;16.80;;;;;;;16.91;72.97;97983.05;130033;1101;23327;-76
2021/05/19 07:13:40;;;;;;;17.15;15.45;;;;;;;16.88;73.26;97984.52;129990;1101;22575;-76
2021/05/19 07:16:08;;;;;;;19.85;15.05;;;;;;;16.84;73.42;97994.61;129990;1101;22677;-76
2021/05/19 07:18:36;;;;;;;22.05;13.93;;;;;;;16.79;73.63;97991.25;130014;1101;22617;-75
2021/05/19 07:21:04;;;;;;;15.30;13.20;;;;;;;16.76;74.10;97989.97;129944;1101;22655;-75
2021/05/19 07:23:34;;;;;;;15.63;12.60;;;;;;;16.75;74.18;97985.61;130044;1101;22598;-75
2021/05/19 07:26:03;;;;;;;12.23;11.03;;;;;;;16.74;73.73;97983.99;129953;1095;25084;-76
2021/05/19 07:28:31;;;;;;;14.33;11.15;;;;;;;16.72;73.94;97988.25;130028;1101;22571;-76
2021/05/19 07:30:59;;;;;;;11.95;8.70;;;;;;;16.70;74.20;97985.02;129990;1101;22752;-76
2021/05/19 07:33:26;;;;;;;10.48;7.95;;;;;;;16.70;73.72;97985.02;129995;1101;22556;-76
2021/05/19 07:35:54;;;;;;;9.15;6.88;;;;;;;16.68;73.75;97984.55;129983;1101;22592;-76
2021/05/19 07:38:22;;;;;;;10.13;7.23;;;;;;;16.69;73.78;97980.66;130019;1101;22593;-76
2021/05/19 07:40:50;;;;;;;10.00;6.50;;;;;;;16.68;74.07;97985.35;126680;1101;24572;-63
2021/05/19 07:43:18;;;;;;;10.90;6.50;;;;;;;16.66;73.67;97982.13;130000;1101;23375;-63
2021/05/19 07:45:45;;;;;;;6.95;5.98;;;;;;;16.65;74.04;97994.27;129988;1101;22562;-64
2021/05/19 07:48:12;;;;;;;5.90;5.20;;;;;;;16.67;74.25;97993.94;129963;1101;22696;-64
2021/05/19 07:50:39;;;;;;;7.23;4.53;;;;;;;16.67;73.81;97994.74;130000;1101;22550;-64
2021/05/19 07:53:06;;;;;;;11.80;5.53;;;;;;;16.66;73.65;98004.13;129717;1101;22663;-64
2021/05/19 07:58:16;;;;;;;5.25;4.00;;;;;;;16.68;73.90;98001.05;130017;1101;22706;-63
2021/05/19 08:03:22;;;;;;;5.45;4.40;;;;;;;16.75;73.68;98004.05;129968;1101;22546;-64
2021/05/19 08:05:52;;;;;;;6.65;4.55;;;;;;;16.79;73.47;98008.56;129933;1101;23278;-64
2021/05/19 08:08:19;;;;;;;6.90;3.38;;;;;;;16.85;73.49;98011.92;130039;1101;22662;-64
2021/05/19 08:10:46;;;;;;;5.75;3.58;;;;;;;16.90;73.07;98008.95;130035;1101;22586;-64
2021/05/19 08:13:13;;;;;;;4.20;3.60;;;;;;;16.97;72.80;98009.23;130045;1101;23288;-64
2021/05/19 08:15:40;;;;;;;7.25;2.70;;;;;;;17.02;72.71;98009.03;130030;1101;22591;-64
2021/05/19 08:18:08;;;;;;;3.28;2.90;;;;;;;17.07;72.31;98013.50;129979;1101;22625;-64
2021/05/19 08:20:35;;;;;;;3.90;2.68;;;;;;;17.11;71.92;98006.20;130049;1100;23413;-64
2021/05/19 08:23:03;;;;;;;3.28;2.55;;;;;;;17.16;71.50;98001.30;129980;1101;22617;-64
2021/05/19 08:25:30;;;;;;;4.65;2.53;;;;;;;17.18;71.38;98010.00;130000;1101;22579;-64
2021/05/19 08:27:59;;;;;;;2.55;1.90;;;;;;;17.22;71.16;98004.63;130029;1101;23568;-64
2021/05/19 08:30:27;;;;;;;6.45;2.53;;;;;;;17.24;71.09;98016.91;130030;1101;22590;-64
2021/05/19 08:32:55;;;;;;;6.95;2.50;;;;;;;17.27;70.88;98013.49;129947;1101;22563;-64
2021/05/19 08:35:23;;;;;;;6.28;1.98;;;;;;;17.31;70.93;98019.13;130027;1101;22546;-63
2021/05/19 08:37:50;;;;;;;2.18;1.75;;;;;;;17.37;71.02;98011.45;129972;1101;22738;-64
2021/05/19 08:40:18;;;;;;;3.70;2.10;;;;;;;17.44;71.33;98019.98;129996;1101;23233;-76
2021/05/19 08:42:46;;;;;;;2.10;1.70;;;;;;;17.51;71.26;98012.75;129979;1101;22534;-76
2021/05/19 08:45:15;;;;;;;4.08;1.95;;;;;;;17.57;70.13;98021.62;130006;1101;22746;-76
2021/05/19 08:47:43;;;;;;;2.10;1.90;;;;;;;17.63;70.15;98020.23;129998;1101;23341;-76
2021/05/19 08:50:14;;;;;;;4.95;2.10;;;;;;;17.67;69.41;98018.45;130000;1101;22606;-76
2021/05/19 08:52:46;;;;;;;1.63;1.40;;;;;;;17.71;69.34;98019.38;129960;1101;22712;-76
2021/05/19 08:55:16;;;;;;;2.43;1.43;;;;;;;17.75;68.68;98012.02;130004;1101;22733;-74
2021/05/19 08:57:43;;;;;;;3.05;1.90;;;;;;;17.76;67.72;98016.39;130014;1101;22577;-74
2021/05/19 09:00:11;;;;;;;3.93;1.95;;;;;;;17.78;67.19;98022.37;129946;1101;23432;-76
2021/05/19 09:02:39;;;;;;;4.43;1.75;;;;;;;17.76;65.88;98018.34;130016;1101;22558;-75
2021/05/19 09:05:07;;;;;;;5.10;1.63;;;;;;;17.73;65.96;98022.61;129978;1101;22656;-76
2021/05/19 09:07:36;;;;;;;2.80;1.45;;;;;;;17.70;64.92;98020.53;129988;1101;22656;-76
2021/05/19 09:10:19;;;;;;;5.95;1.60;;;;;;;17.69;65.12;98018.91;129959;1101;22571;-75
2021/05/19 09:12:47;;;;;;;5.28;1.33;;;;;;;17.71;65.24;98018.58;130056;1101;22563;-76
2021/05/19 09:15:15;;;;;;;3.85;1.28;;;;;;;17.73;65.43;98017.09;129953;1101;22559;-76
2021/05/19 09:17:43;;;;;;;2.68;1.10;;;;;;;17.78;65.59;98022.37;130029;1101;22617;-76
2021/05/19 09:20:14;;;;;;;2.35;1.10;;;;;;;17.85;65.48;98022.63;130209;1098;22680;-76
2021/05/19 09:22:43;;;;;;;3.40;0.90;;;;;;;17.92;64.71;98028.36;130322;1098;22531;-74
2021/05/19 09:25:22;;;;;;;1.20;1.00;;;;;;;17.97;64.38;98024.58;130323;1098;22677;-75
2021/05/19 09:27:50;;;;;;;1.15;0.83;;;;;;;18.00;63.05;98027.47;130359;1098;23400;-76
2021/05/19 09:30:38;;;;;;;2.48;0.85;;;;;;;18.05;63.05;98026.41;130134;1098;22885;-76
2021/05/19 09:33:16;;;;;;;1.13;1.03;;;;;;;18.09;62.22;98019.08;130054;1098;22637;-74
2021/05/19 09:36:09;;;;;;;1.18;1.00;;;;;;;18.13;62.38;98028.28;130346;1098;22523;-74
2021/05/19 09:38:37;;;;;;;1.10;1.00;;;;;;;18.16;61.85;98019.33;130365;1098;23146;-75
2021/05/19 09:41:13;;;;;;;1.20;1.10;;;;;;;18.19;62.53;98015.86;130306;1098;23304;-62
2021/05/19 09:43:43;;;;;;;1.53;1.25;;;;;;;18.23;62.63;98021.49;130005;1100;22506;-62
2021/05/19 09:46:16;;;;;;;3.05;0.85;;;;;;;18.26;62.41;98012.53;130217;1098;22628;-62
2021/05/19 09:48:45;;;;;;;3.73;1.10;;;;;;;18.30;62.47;98007.95;130362;1098;22670;-62
2021/05/19 09:51:28;;;;;;;4.75;1.20;;;;;;;18.36;62.14;98006.55;130320;1098;22563;-63
2021/05/19 09:53:55;;;;;;;2.63;0.88;;;;;;;18.40;61.62;98012.19;130074;1100;23175;-63
2021/05/19 09:56:23;;;;;;;1.78;1.08;;;;;;;18.44;61.34;98008.39;129991;1098;22985;-62
2021/05/19 09:58:50;;;;;;;2.68;0.90;;;;;;;18.50;60.47;98014.47;130377;1098;22667;-63
2021/05/19 10:01:18;;;;;;;2.25;1.30;;;;;;;18.54;61.64;98012.63;129993;1101;22538;-63
2021/05/19 10:03:46;;;;;;;1.55;1.30;;;;;;;18.59;61.52;98021.52;130054;1100;23023;-63
2021/05/19 10:06:28;;;;;;;4.08;0.90;;;;;;;18.64;60.83;98021.25;130329;1098;22575;-63
2021/05/19 10:09:16;;;;;;;1.18;1.00;;;;;;;18.70;60.61;98030.91;130386;1098;22742;-62
2021/05/19 10:11:45;;;;;;;2.15;0.95;;;;;;;18.77;60.47;98023.98;130329;1098;22617;-62
2021/05/19 10:14:13;;;;;;;3.35;1.00;;;;;;;18.82;60.56;98026.52;130086;1100;22575;-62
2021/05/19 10:16:43;;;;;;;1.03;0.80;;;;;;;18.86;60.87;98025.48;130372;1098;22550;-62
2021/05/19 10:19:13;;;;;;;0.80;0.80;;;;;;;18.93;59.62;98027.63;130075;1098;22675;-62
2021/05/19 14:28:15;;;;;;;1.20;1.10;;;;;;;14.19;81.93;98216.83;129957;1101;23227;-59
2021/05/19 14:30:44;;;;;;;1.10;1.00;;;;;;;14.22;82.17;98219.76;129918;1101;22644;-59
2021/05/19 14:33:13;;;;;;;1.25;0.98;;;;;;;14.24;81.92;98227.67;129902;1101;22552;-67
2021/05/19 15:00:53;;;;;;;2.50;1.33;;;;;;;14.40;81.17;98235.21;129889;1101;23101;-59
2021/05/19 15:03:22;;;;;;;1.60;1.30;;;;;;;14.39;80.32;98240.97;130013;1101;22637;-59
2021/05/19 15:05:52;;;;;;;1.98;1.20;;;;;;;14.35;80.39;98246.27;129727;1101;22727;-59
2021/05/19 15:08:21;;;;;;;2.18;1.30;;;;;;;14.33;80.43;98248.50;129961;1101;22698;-59
2021/05/19 15:10:49;;;;;;;1.33;1.23;;;;;;;14.33;80.64;98256.72;129940;1101;22628;-59
2021/05/19 15:13:17;;;;;;;1.58;1.33;;;;;;;14.32;80.42;98249.63;129944;1101;22555;-59
2021/05/19 15:15:46;;;;;;;3.03;1.58;;;;;;;14.30;80.56;98256.53;129915;1101;22552;-66
2021/05/19 15:18:14;;;;;;;1.33;1.10;;;;;;;14.27;80.27;98254.45;129893;1101;22623;-67
2021/05/19 15:20:47;;;;;;;1.30;1.20;;;;;;;14.24;80.46;98255.88;129706;1104;22553;-67
2021/05/19 15:23:16;;;;;;;1.08;0.98;;;;;;;14.22;80.54;98255.38;129952;1101;23301;-67
2021/05/19 15:25:45;;;;;;;2.33;1.30;;;;;;;14.19;79.93;98263.40;129912;1101;22605;-67
2021/05/19 15:28:18;;;;;;;2.95;1.50;;;;;;;14.16;79.85;98270.30;129925;1101;22571;-67
2021/05/19 15:30:47;;;;;;;2.35;1.20;;;;;;;14.14;80.23;98269.80;129726;1101;22548;-68
2021/05/19 15:33:15;;;;;;;1.53;1.20;;;;;;;14.15;80.10;98264.02;129883;1101;23635;-67
2021/05/19 15:35:43;;;;;;;1.20;1.10;;;;;;;14.15;79.98;98280.45;129933;1101;23195;-68
2021/05/19 15:38:12;;;;;;;1.88;1.10;;;;;;;14.14;80.03;98275.28;129919;1101;23559;-67
2021/05/19 15:40:41;;;;;;;3.18;1.33;;;;;;;14.13;79.80;98279.98;129943;1101;23286;-67
2021/05/19 15:43:10;;;;;;;1.73;1.20;;;;;;;14.11;79.85;98281.41;129916;1101;22558;-67
2021/05/19 15:45:55;;;;;;;7.07;2.20;;;;;;;14.05;79.54;98277.16;129723;1104;22543;-59
2021/05/19 15:48:24;;;;;;;3.40;1.78;;;;;;;14.02;79.78;98284.06;129867;1101;22631;-59
2021/05/19 15:50:52;;;;;;;2.55;1.58;;;;;;;14.00;80.37;98288.23;129921;1101;23585;-59
2021/05/19 15:53:21;;;;;;;1.90;1.38;;;;;;;13.97;80.33;98286.94;129909;1101;23387;-59
2021/05/19 15:55:51;;;;;;;3.25;2.58;;;;;;;13.89;80.03;98290.41;129979;1101;23009;-59
2021/05/19 15:58:19;;;;;;;6.73;1.60;;;;;;;13.79;80.01;98293.39;129904;1101;22609;-60
2021/05/19 16:00:49;;;;;;;2.15;1.60;;;;;;;13.75;80.31;98290.45;129848;1101;22594;-59
2021/05/19 16:03:19;;;;;;;5.30;2.10;;;;;;;13.72;80.56;98293.80;129927;1101;22615;-59
2021/05/19 16:05:47;;;;;;;4.48;1.90;;;;;;;13.68;80.54;98290.08;129911;1101;22658;-59